Time;durP1;ratioP1;P1;durP2;ratioP2;P2;SDS_P1;SDS_P2;PMS_P1;PMS_P2;Temp;Humidity;BMP_temperature;BMP_pressure;BME280_temperature;BME280_humidity;BME280_pressure;Samples;Min_cycle;Max_cycle;Signal;HPM_P1;HPM_P2
2023/10/26 00:00:33;;;;;;;1.40;0.50;;;11.80;1.00;;;;;;7378231;19;20019;-71
2023/10/26 00:03:03;;;;;;;3.90;1.35;;;11.80;1.00;;;;;;7378236;19;20007;-71
2023/10/26 00:05:33;;;;;;;0.63;0.40;;;11.80;1.00;;;;;;7379254;19;20486;-71
2023/10/26 00:08:03;;;;;;;2.65;0.50;;;11.80;1.00;;;;;;7377182;19;20002;-71
2023/10/26 00:10:36;;;;;;;1.98;0.93;;;11.80;1.00;;;;;;7378996;19;20073;-71
2023/10/26 00:13:06;;;;;;;1.48;0.50;;;11.80;1.00;;;;;;7378199;19;20014;-71
2023/10/26 00:15:37;;;;;;;1.63;0.90;;;11.80;1.00;;;;;;7378800;19;20010;-71
2023/10/26 00:18:07;;;;;;;1.40;0.90;;;11.70;1.00;;;;;;7378707;19;20816;-73
2023/10/26 00:20:37;;;;;;;1.60;0.60;;;11.60;1.00;;;;;;7378483;19;20376;-71
2023/10/26 00:23:08;;;;;;;1.60;0.80;;;11.60;1.00;;;;;;7378281;19;20018;-72
2023/10/26 00:25:40;;;;;;;1.80;0.65;;;11.60;1.00;;;;;;7379894;19;20010;-72
2023/10/26 00:28:10;;;;;;;1.80;0.60;;;11.60;1.00;;;;;;7376376;19;20486;-71
2023/10/26 00:30:40;;;;;;;1.35;0.57;;;11.60;1.00;;;;;;7379008;19;20014;-71
2023/10/26 00:33:10;;;;;;;1.27;0.60;;;11.50;1.00;;;;;;7377837;19;20094;-71
2023/10/26 00:35:40;;;;;;;0.90;0.75;;;11.40;1.00;;;;;;7377936;19;20017;-72
2023/10/26 00:38:10;;;;;;;2.78;0.60;;;11.30;1.00;;;;;;7378119;19;20402;-71
2023/10/26 00:40:43;;;;;;;2.53;1.08;;;11.30;1.00;;;;;;7376511;19;20006;-71
2023/10/26 00:43:22;;;;;;;1.02;0.60;;;11.30;1.00;;;;;;7377519;19;20017;-71
2023/10/26 00:45:54;;;;;;;1.10;0.60;;;11.30;1.00;;;;;;7373243;19;20093;-72
2023/10/26 00:48:24;;;;;;;2.45;0.60;;;11.20;1.00;;;;;;7378231;19;20040;-71
2023/10/26 00:50:55;;;;;;;1.30;0.70;;;11.10;1.00;;;;;;7378580;19;20490;-72
2023/10/26 00:53:25;;;;;;;1.58;0.43;;;11.10;1.00;;;;;;7375550;19;20398;-71
2023/10/26 00:55:58;;;;;;;1.50;0.88;;;11.10;1.00;;;;;;7378543;19;20010;-71
2023/10/26 00:58:29;;;;;;;1.70;0.60;;;11.20;1.00;;;;;;7377325;19;20031;-71
2023/10/26 01:00:59;;;;;;;1.38;0.70;;;11.20;1.00;;;;;;7377800;19;20494;-71
2023/10/26 01:03:32;;;;;;;3.03;0.75;;;11.10;1.00;;;;;;7376313;19;20078;-71
2023/10/26 01:06:02;;;;;;;2.78;1.58;;;11.10;1.00;;;;;;7377118;19;20011;-71
2023/10/26 01:08:32;;;;;;;6.05;2.10;;;11.10;1.00;;;;;;7376165;19;20021;-71
2023/10/26 01:11:04;;;;;;;3.28;1.30;;;11.10;1.00;;;;;;7374676;19;20018;-71
2023/10/26 01:13:35;;;;;;;1.42;0.90;;;11.10;1.00;;;;;;7376855;19;20105;-71
2023/10/26 01:16:05;;;;;;;2.10;0.70;;;11.10;1.00;;;;;;7377925;19;20018;-71
2023/10/26 01:18:35;;;;;;;1.35;0.70;;;11.10;1.00;;;;;;7376496;19;20015;-71
2023/10/26 01:21:06;;;;;;;1.20;0.77;;;11.00;1.00;;;;;;7376462;19;20014;-71
2023/10/26 01:23:39;;;;;;;1.42;0.52;;;11.00;1.00;;;;;;7376587;19;20074;-72
2023/10/26 01:26:09;;;;;;;0.98;0.65;;;10.90;1.00;;;;;;7377326;19;20032;-71
2023/10/26 01:28:39;;;;;;;1.48;0.68;;;11.00;1.00;;;;;;7376571;19;20399;-71
2023/10/26 01:31:09;;;;;;;2.58;0.77;;;11.00;1.00;;;;;;7377540;19;20086;-71
2023/10/26 01:33:39;;;;;;;1.33;0.57;;;11.00;1.00;;;;;;7376608;19;20031;-71
2023/10/26 01:36:09;;;;;;;1.10;0.82;;;11.00;1.00;;;;;;7378162;19;20377;-71
2023/10/26 01:38:42;;;;;;;1.58;0.95;;;11.00;1.00;;;;;;7377701;19;20399;-71
2023/10/26 01:41:11;;;;;;;3.17;0.90;;;11.00;1.00;;;;;;7377699;19;20006;-72
2023/10/26 01:43:41;;;;;;;1.75;0.80;;;11.00;1.00;;;;;;7373685;19;20141;-71
2023/10/26 01:46:11;;;;;;;2.40;0.70;;;11.00;1.00;;;;;;7376357;19;20015;-71
2023/10/26 01:48:42;;;;;;;1.65;0.73;;;11.00;1.00;;;;;;7376295;19;20014;-72
2023/10/26 01:51:12;;;;;;;2.63;0.88;;;10.90;1.00;;;;;;7378237;19;20589;-71
2023/10/26 01:53:44;;;;;;;0.93;0.60;;;10.90;1.00;;;;;;7381056;19;20014;-71
2023/10/26 01:56:14;;;;;;;1.00;0.57;;;10.80;1.20;;;;;;7381869;19;20010;-71
2023/10/26 01:58:45;;;;;;;2.92;0.80;;;10.60;3.00;;;;;;7382938;19;20084;-72
2023/10/26 02:01:15;;;;;;;1.52;0.75;;;10.60;7.40;;;;;;7383021;19;20031;-72
2023/10/26 02:03:45;;;;;;;0.95;0.70;;;10.50;10.10;;;;;;7382014;19;20018;-72
2023/10/26 02:06:15;;;;;;;1.85;0.88;;;10.40;13.40;;;;;;7382479;19;20548;-71
2023/10/26 02:08:47;;;;;;;2.88;1.00;;;10.40;16.20;;;;;;7382937;19;20078;-71
2023/10/26 02:11:18;;;;;;;6.18;0.90;;;10.30;19.30;;;;;;7384472;19;20490;-71
2023/10/26 02:13:48;;;;;;;4.88;1.20;;;10.30;22.70;;;;;;7382234;19;20002;-71
2023/10/26 02:16:20;;;;;;;3.42;1.30;;;10.30;24.50;;;;;;7384875;19;20037;-71
2023/10/26 02:18:50;;;;;;;2.58;0.90;;;10.30;26.20;;;;;;7382848;19;20429;-71
2023/10/26 02:21:20;;;;;;;2.15;1.00;;;10.30;26.00;;;;;;7379914;19;20474;-71
2023/10/26 02:23:52;;;;;;;1.52;1.08;;;10.30;25.60;;;;;;7383330;19;20033;-71
2023/10/26 02:26:22;;;;;;;2.30;1.00;;;10.40;24.60;;;;;;7383060;19;20028;-72
2023/10/26 02:28:52;;;;;;;4.70;1.05;;;10.40;24.10;;;;;;7383607;19;20489;-72
2023/10/26 02:31:22;;;;;;;3.20;0.95;;;10.40;24.90;;;;;;7384290;19;20017;-72
2023/10/26 02:33:52;;;;;;;2.33;1.00;;;10.40;25.60;;;;;;7381572;19;20011;-72
2023/10/26 02:36:22;;;;;;;1.83;0.95;;;10.40;22.40;;;;;;7382581;19;20007;-72
2023/10/26 02:38:54;;;;;;;2.90;1.60;;;10.40;19.00;;;;;;7381815;19;20018;-72
2023/10/26 02:41:24;;;;;;;2.00;1.05;;;10.50;12.60;;;;;;7381826;19;20385;-72
2023/10/26 02:43:54;;;;;;;2.20;0.90;;;10.40;10.60;;;;;;7381523;19;20089;-72
2023/10/26 02:46:25;;;;;;;2.45;0.95;;;10.40;10.30;;;;;;7382127;19;20028;-72
2023/10/26 02:48:57;;;;;;;2.30;1.00;;;10.40;7.40;;;;;;7382004;19;20002;-72
2023/10/26 02:51:28;;;;;;;0.90;0.60;;;10.50;1.20;;;;;;7380882;19;20093;-71
2023/10/26 02:54:01;;;;;;;2.85;0.70;;;10.60;1.00;;;;;;7380097;19;20015;-72
2023/10/26 02:56:31;;;;;;;3.08;0.80;;;10.60;1.00;;;;;;7381466;19;20011;-72
2023/10/26 02:59:01;;;;;;;1.95;0.57;;;10.70;1.00;;;;;;7381900;19;20021;-71
2023/10/26 03:01:35;;;;;;;2.92;0.70;;;10.80;1.00;;;;;;7378665;19;20015;-71
2023/10/26 03:04:05;;;;;;;1.50;0.90;;;10.90;1.00;;;;;;7379668;19;20074;-71
2023/10/26 03:06:38;;;;;;;4.15;0.90;;;10.80;1.00;;;;;;7380922;19;20015;-71
2023/10/26 03:09:13;;;;;;;1.33;0.50;;;10.90;1.00;;;;;;7381491;19;20669;-71
2023/10/26 03:11:44;;;;;;;1.23;0.57;;;11.00;1.00;;;;;;7380656;19;20006;-72
2023/10/26 03:14:14;;;;;;;3.22;0.70;;;11.00;1.00;;;;;;7380620;19;20010;-71
2023/10/26 03:16:44;;;;;;;1.20;0.60;;;11.10;1.00;;;;;;7379977;19;20010;-71
2023/10/26 03:19:13;;;;;;;1.65;0.70;;;11.10;1.00;;;;;;7379649;19;20003;-71
2023/10/26 03:21:44;;;;;;;3.30;0.90;;;11.10;1.00;;;;;;7380888;19;20454;-71
2023/10/26 03:24:16;;;;;;;2.35;0.60;;;11.10;1.00;;;;;;7377360;19;20007;-71
2023/10/26 03:26:46;;;;;;;2.25;0.52;;;11.10;1.00;;;;;;7376734;19;20031;-71
2023/10/26 03:29:16;;;;;;;1.65;0.60;;;11.10;1.00;;;;;;7383891;19;20107;-70
2023/10/26 03:31:46;;;;;;;2.35;0.55;;;11.10;1.00;;;;;;7380386;19;20017;-70
2023/10/26 03:34:14;;;;;;;1.35;0.75;;;11.10;1.00;;;;;;7381680;19;20880;-71
2023/10/26 03:36:44;;;;;;;1.67;0.60;;;11.00;1.00;;;;;;7382572;19;20085;-71
2023/10/26 03:39:17;;;;;;;2.65;1.00;;;10.90;1.00;;;;;;7380700;19;20010;-70
2023/10/26 03:41:46;;;;;;;0.65;0.50;;;10.90;1.00;;;;;;7380414;19;20022;-71
2023/10/26 03:44:16;;;;;;;1.80;0.70;;;10.90;1.00;;;;;;7379612;19;20017;-72
2023/10/26 03:46:46;;;;;;;2.97;0.70;;;10.90;1.00;;;;;;7380741;19;20035;-71
2023/10/26 03:49:16;;;;;;;3.22;0.73;;;10.80;1.00;;;;;;7381528;19;20374;-72
2023/10/26 03:51:46;;;;;;;1.42;0.50;;;10.80;1.00;;;;;;7380737;19;20013;-71
2023/10/26 03:54:19;;;;;;;1.08;0.45;;;10.80;1.00;;;;;;7379623;19;20481;-72
2023/10/26 03:56:49;;;;;;;0.88;0.50;;;10.80;1.00;;;;;;7376442;19;20030;-71
2023/10/26 03:59:19;;;;;;;1.05;0.52;;;10.80;1.00;;;;;;7380129;19;20860;-72
2023/10/26 04:01:50;;;;;;;3.42;0.85;;;10.90;1.00;;;;;;7374776;19;20010;-71
2023/10/26 04:04:20;;;;;;;1.40;0.60;;;10.90;1.00;;;;;;7380520;19;20029;-71
2023/10/26 04:06:50;;;;;;;1.08;0.57;;;10.90;1.00;;;;;;7382175;19;20013;-71
2023/10/26 04:09:22;;;;;;;3.50;1.05;;;10.90;1.00;;;;;;7381955;19;20010;-70
2023/10/26 04:11:52;;;;;;;0.80;0.50;;;10.80;1.00;;;;;;7380917;19;20320;-71
2023/10/26 04:14:22;;;;;;;1.48;0.52;;;10.70;1.00;;;;;;7377895;19;20007;-70
2023/10/26 04:16:52;;;;;;;1.45;0.50;;;10.70;1.00;;;;;;7378656;19;20335;-70
2023/10/26 04:19:22;;;;;;;3.58;0.90;;;10.60;1.00;;;;;;7375631;19;20027;-70
2023/10/26 04:21:52;;;;;;;1.40;0.50;;;10.50;1.00;;;;;;7381062;19;20092;-72
2023/10/26 04:24:24;;;;;;;1.00;0.60;;;10.50;1.00;;;;;;7379906;19;20025;-71
2023/10/26 04:26:55;;;;;;;2.50;0.47;;;10.50;1.00;;;;;;7375222;19;20014;-72
2023/10/26 04:29:25;;;;;;;1.40;0.88;;;10.50;1.00;;;;;;7376194;19;20081;-72
2023/10/26 04:31:54;;;;;;;5.00;1.90;;;10.40;1.00;;;;;;7376537;19;20010;-72
2023/10/26 04:34:25;;;;;;;4.35;1.48;;;10.40;1.00;;;;;;7378215;19;20014;-72
2023/10/26 04:36:58;;;;;;;2.05;0.80;;;10.40;1.00;;;;;;7376875;19;20034;-71
2023/10/26 04:39:30;;;;;;;2.65;0.95;;;10.40;1.00;;;;;;7378809;19;20014;-71
2023/10/26 04:42:00;;;;;;;1.85;0.90;;;10.30;1.00;;;;;;7377335;19;20014;-70
2023/10/26 04:44:30;;;;;;;3.60;0.95;;;10.30;1.00;;;;;;7378576;19;20010;-72
2023/10/26 04:47:01;;;;;;;3.72;1.63;;;10.30;1.00;;;;;;7375726;19;20022;-72
2023/10/26 04:49:33;;;;;;;1.25;0.75;;;10.20;1.00;;;;;;7375335;19;20019;-72
2023/10/26 04:52:04;;;;;;;2.45;1.27;;;10.20;1.00;;;;;;7376989;19;20041;-71
2023/10/26 04:54:36;;;;;;;1.45;0.80;;;10.10;1.00;;;;;;7377651;19;20486;-71
2023/10/26 04:57:06;;;;;;;3.13;1.20;;;10.10;1.00;;;;;;7377143;19;20470;-71
2023/10/26 04:59:36;;;;;;;1.98;1.02;;;10.10;1.00;;;;;;7376925;19;20142;-71
2023/10/26 05:02:06;;;;;;;1.50;0.93;;;10.00;1.00;;;;;;7374827;19;20097;-70
2023/10/26 05:04:36;;;;;;;2.47;1.25;;;10.00;1.00;;;;;;7376117;19;20023;-72
2023/10/26 05:07:07;;;;;;;2.88;1.05;;;9.90;1.00;;;;;;7377160;19;20054;-70
2023/10/26 05:09:39;;;;;;;1.15;0.93;;;9.90;1.30;;;;;;7378433;19;20018;-71
2023/10/26 05:12:09;;;;;;;3.78;0.98;;;9.80;1.00;;;;;;7377435;19;20017;-71
2023/10/26 05:14:40;;;;;;;2.58;1.10;;;9.80;1.00;;;;;;7376777;19;20493;-71
2023/10/26 05:17:09;;;;;;;2.70;1.05;;;9.80;1.90;;;;;;7376614;19;20114;-71
2023/10/26 05:19:39;;;;;;;3.63;1.10;;;9.80;2.70;;;;;;7377966;19;20007;-71
2023/10/26 05:22:09;;;;;;;1.63;1.00;;;9.80;3.60;;;;;;7375273;19;20418;-71
2023/10/26 05:24:44;;;;;;;4.53;1.58;;;9.70;5.10;;;;;;7375848;19;20371;-71
2023/10/26 05:27:13;;;;;;;;;;;9.60;7.70;;;;;;7373788;19;20015;-71
2023/10/26 05:29:43;;;;;;;3.88;1.60;;;9.70;11.40;;;;;;7375570;19;19911;-71
2023/10/26 05:32:13;;;;;;;3.83;1.88;;;9.60;14.20;;;;;;7375508;19;20007;-71
2023/10/26 05:34:43;;;;;;;4.90;1.80;;;9.60;17.80;;;;;;7376735;19;20011;-71
2023/10/26 05:37:14;;;;;;;5.65;1.98;;;9.50;19.90;;;;;;7376556;19;20036;-70
2023/10/26 05:39:46;;;;;;;3.30;1.90;;;9.50;21.60;;;;;;7376140;19;20331;-70
2023/10/26 05:42:16;;;;;;;2.38;1.48;;;9.50;24.50;;;;;;7376122;19;20027;-71
2023/10/26 05:44:46;;;;;;;1.95;1.20;;;9.50;24.90;;;;;;7374763;19;20832;-71
2023/10/26 05:47:16;;;;;;;5.10;1.27;;;9.50;23.80;;;;;;7375067;19;20086;-71
2023/10/26 05:49:50;;;;;;;2.97;1.13;;;9.50;22.10;;;;;;7377348;19;20468;-71
2023/10/26 05:52:20;;;;;;;2.65;1.88;;;9.60;21.80;;;;;;7375516;19;20018;-71
2023/10/26 05:54:53;;;;;;;3.50;1.30;;;9.60;20.50;;;;;;7375469;19;20019;-71
2023/10/26 05:57:25;;;;;;;3.60;1.60;;;9.60;18.80;;;;;;7376582;19;20081;-70
2023/10/26 05:59:56;;;;;;;2.95;1.30;;;9.70;17.20;;;;;;7373697;19;20006;-72
2023/10/26 06:02:26;;;;;;;2.90;1.45;;;9.80;13.20;;;;;;7373688;19;20027;-72
2023/10/26 06:04:55;;;;;;;5.18;1.42;;;9.80;12.00;;;;;;7375377;19;20057;-71
2023/10/26 06:07:25;;;;;;;6.00;1.70;;;9.80;10.90;;;;;;7374434;19;20007;-72
2023/10/26 06:09:58;;;;;;;2.38;1.30;;;9.80;10.30;;;;;;7372513;19;20014;-72
2023/10/26 06:12:28;;;;;;;2.17;1.52;;;9.80;8.40;;;;;;7373251;19;20010;-71
2023/10/26 06:14:58;;;;;;;2.90;1.85;;;9.90;5.80;;;;;;7369782;19;20441;-71
2023/10/26 06:17:28;;;;;;;3.35;1.98;;;9.90;4.20;;;;;;7374810;19;20335;-71
2023/10/26 06:19:58;;;;;;;4.32;1.77;;;10.00;1.20;;;;;;7374542;19;20019;-71
2023/10/26 06:22:28;;;;;;;4.25;1.60;;;10.10;1.00;;;;;;7374137;19;20579;-70
2023/10/26 06:25:01;;;;;;;6.15;1.67;;;10.10;1.00;;;;;;7374204;19;20041;-71
2023/10/26 06:27:31;;;;;;;3.13;1.80;;;10.10;1.00;;;;;;7372275;19;20014;-70
2023/10/26 06:30:01;;;;;;;4.18;1.73;;;10.20;1.00;;;;;;7373696;19;20365;-71
2023/10/26 06:32:31;;;;;;;2.20;1.58;;;10.20;1.00;;;;;;7373686;19;20523;-71
2023/10/26 06:35:01;;;;;;;2.55;1.60;;;10.30;1.00;;;;;;7374168;19;20010;-71
2023/10/26 06:37:31;;;;;;;2.58;1.80;;;10.30;1.00;;;;;;7375833;19;20010;-71
2023/10/26 06:40:03;;;;;;;2.10;1.48;;;10.40;1.00;;;;;;7381780;19;20040;-71
2023/10/26 06:42:33;;;;;;;2.88;1.67;;;10.50;1.00;;;;;;7380220;19;20102;-71
2023/10/26 06:45:03;;;;;;;4.55;1.58;;;10.50;1.00;;;;;;7381589;19;20006;-72
2023/10/26 06:47:33;;;;;;;4.03;1.70;;;10.60;1.00;;;;;;7379884;19;20014;-70
2023/10/26 06:50:03;;;;;;;3.83;1.90;;;10.60;1.00;;;;;;7380052;19;20007;-71
2023/10/26 06:52:33;;;;;;;3.03;1.48;;;10.70;1.00;;;;;;7378802;19;20015;-71
2023/10/26 06:55:06;;;;;;;2.63;1.40;;;10.70;1.00;;;;;;7380633;19;20018;-71
2023/10/26 06:57:52;;;;;;;3.83;1.55;;;10.70;1.00;;;;;;7380179;19;20007;-71
2023/10/26 07:00:22;;;;;;;2.80;1.58;;;10.80;1.00;;;;;;7381614;19;20017;-71
2023/10/26 07:02:52;;;;;;;1.88;1.52;;;10.80;2.50;;;;;;7378115;19;20013;-71
2023/10/26 07:05:22;;;;;;;3.05;1.60;;;10.90;9.60;;;;;;7382137;19;20035;-71
2023/10/26 07:07:52;;;;;;;4.28;1.92;;;10.80;11.10;;;;;;7381703;19;20014;-71
2023/10/26 07:10:25;;;;;;;4.07;1.95;;;10.90;12.40;;;;;;7381899;19;20050;-71
2023/10/26 07:12:55;;;;;;;3.50;1.88;;;10.90;13.90;;;;;;7381566;19;20038;-71
2023/10/26 07:15:25;;;;;;;3.08;1.70;;;10.80;11.40;;;;;;7381394;19;20010;-71
2023/10/26 07:17:55;;;;;;;3.47;1.83;;;10.90;15.50;;;;;;7381471;19;20018;-71
2023/10/26 07:20:26;;;;;;;3.53;1.70;;;10.90;15.80;;;;;;7378474;19;20040;-71
2023/10/26 07:22:56;;;;;;;2.67;1.65;;;11.00;16.70;;;;;;7378941;19;20014;-72
2023/10/26 07:25:29;;;;;;;3.42;1.90;;;11.10;21.20;;;;;;7379503;19;20018;-71
2023/10/26 07:27:59;;;;;;;3.40;1.60;;;11.20;22.80;;;;;;7374822;19;20027;-71
2023/10/26 07:30:29;;;;;;;5.72;3.58;;;11.20;24.30;;;;;;7380551;19;20608;-71
2023/10/26 07:32:59;;;;;;;5.30;3.00;;;11.10;24.80;;;;;;7379734;19;20022;-72
2023/10/26 07:35:29;;;;;;;3.83;2.63;;;11.10;21.20;;;;;;7379223;19;20017;-71
2023/10/26 07:37:59;;;;;;;3.92;2.20;;;11.20;22.00;;;;;;7380743;19;20063;-71
2023/10/26 07:40:56;;;;;;;4.60;2.35;;;11.30;29.70;;;;;;7380264;19;20017;-71
2023/10/26 07:43:26;;;;;;;5.93;2.15;;;11.30;27.60;;;;;;7379649;19;20010;-72
2023/10/26 07:45:57;;;;;;;4.10;2.08;;;11.30;22.90;;;;;;7381018;19;20006;-71
2023/10/26 07:48:27;;;;;;;2.88;1.83;;;11.40;23.00;;;;;;7377969;19;20042;-71
2023/10/26 07:50:58;;;;;;;3.83;2.30;;;11.40;21.70;;;;;;7380833;19;20031;-72
2023/10/26 07:53:29;;;;;;;5.38;2.50;;;11.50;25.90;;;;;;7374013;19;20127;-71
2023/10/26 07:56:01;;;;;;;8.95;2.40;;;11.40;20.80;;;;;;7379641;19;20017;-72
2023/10/26 07:58:32;;;;;;;7.35;2.00;;;11.50;20.10;;;;;;7379163;19;20014;-71
2023/10/26 08:01:08;;;;;;;3.60;2.03;;;11.50;15.60;;;;;;7378658;19;20355;-71
2023/10/26 08:03:38;;;;;;;3.50;2.00;;;11.50;15.30;;;;;;7376884;19;20014;-72
2023/10/26 08:06:10;;;;;;;4.57;1.90;;;11.60;11.70;;;;;;7378425;19;20011;-71
2023/10/26 08:08:40;;;;;;;4.28;1.85;;;11.60;9.90;;;;;;7379500;19;20089;-72
2023/10/26 08:11:16;;;;;;;3.13;2.15;;;11.60;15.30;;;;;;7378015;19;20014;-71
2023/10/26 08:13:46;;;;;;;5.32;2.90;;;11.70;15.30;;;;;;7377021;19;20078;-71
2023/10/26 08:16:15;;;;;;;4.22;3.08;;;11.60;8.70;;;;;;7379885;19;20031;-71
2023/10/26 08:19:05;;;;;;;7.57;3.13;;;11.50;11.00;;;;;;7374418;19;20071;-73
2023/10/26 08:21:35;;;;;;;7.80;3.25;;;11.40;4.30;;;;;;7379202;19;20010;-71
2023/10/26 08:24:06;;;;;;;6.78;3.40;;;11.50;15.30;;;;;;7377866;19;20076;-71
2023/10/26 08:26:39;;;;;;;4.22;2.72;;;11.60;15.50;;;;;;7379665;19;20026;-71
2023/10/26 08:29:09;;;;;;;4.65;2.70;;;11.70;17.00;;;;;;7379991;19;20459;-71
2023/10/26 08:31:50;;;;;;;5.57;2.53;;;11.80;18.00;;;;;;7377292;19;20010;-71
2023/10/26 08:34:20;;;;;;;5.13;2.10;;;12.00;14.30;;;;;;7378183;19;20011;-71
2023/10/26 08:36:50;;;;;;;6.93;2.25;;;12.00;12.10;;;;;;7377996;19;20333;-71
2023/10/26 08:39:25;;;;;;;5.57;2.60;;;12.00;10.90;;;;;;7379588;19;20108;-71
2023/10/26 08:41:58;;;;;;;4.88;2.58;;;12.10;9.10;;;;;;7373603;19;20110;-71
2023/10/26 08:44:29;;;;;;;4.95;3.35;;;12.10;5.90;;;;;;7375179;19;20006;-71
2023/10/26 08:47:02;;;;;;;4.97;2.60;;;12.20;7.80;;;;;;7376878;19;20015;-72
2023/10/26 08:49:34;;;;;;;4.78;1.80;;;12.30;7.90;;;;;;7378859;19;20006;-71
2023/10/26 08:52:05;;;;;;;11.27;6.88;;;12.30;2.30;;;;;;7376009;19;20021;-71
2023/10/26 08:54:36;;;;;;;2.40;1.88;;;12.30;1.00;;;;;;7377393;19;20014;-71
2023/10/26 08:57:12;;;;;;;3.88;1.90;;;12.40;3.50;;;;;;7376640;19;20378;-72
2023/10/26 08:59:42;;;;;;;4.30;2.10;;;12.50;3.00;;;;;;7378310;19;20018;-72
2023/10/26 09:02:12;;;;;;;4.40;2.63;;;12.50;2.10;;;;;;7375992;19;20473;-72
2023/10/26 09:05:02;;;;;;;5.18;2.72;;;12.60;1.10;;;;;;7376615;19;20394;-71
2023/10/26 09:07:33;;;;;;;6.45;2.40;;;12.70;6.60;;;;;;7371667;19;20054;-70
2023/10/26 09:10:03;;;;;;;6.47;2.90;;;12.70;4.00;;;;;;7378162;19;20017;-72
2023/10/26 09:12:36;;;;;;;4.20;2.25;;;12.70;2.60;;;;;;7376186;19;20006;-72
2023/10/26 09:15:10;;;;;;;4.85;2.47;;;12.70;3.70;;;;;;7376580;19;20819;-71
2023/10/26 09:17:40;;;;;;;6.88;2.92;;;12.70;7.30;;;;;;7377593;19;20053;-72
2023/10/26 09:20:21;;;;;;;6.03;3.22;;;12.60;14.60;;;;;;7377161;19;20091;-71
2023/10/26 09:22:51;;;;;;;6.97;3.33;;;12.50;20.50;;;;;;7376412;19;20513;-72
2023/10/26 09:25:21;;;;;;;11.02;3.53;;;12.40;21.50;;;;;;7374676;19;20045;-72
2023/10/26 09:28:03;;;;;;;5.40;3.10;;;12.50;29.30;;;;;;7376593;19;20017;-72
2023/10/26 09:30:36;;;;;;;8.35;3.42;;;12.50;40.10;;;;;;7373691;19;20010;-72
2023/10/26 09:33:06;;;;;;;4.50;3.15;;;12.50;38.90;;;;;;7374064;19;20074;-72
2023/10/26 09:35:36;;;;;;;8.57;2.92;;;12.50;36.70;;;;;;7375399;19;20019;-71
2023/10/26 09:38:06;;;;;;;6.05;3.08;;;12.40;44.60;;;;;;7375535;19;20727;-71
2023/10/26 09:40:38;;;;;;;4.60;2.85;;;12.50;57.90;;;;;;7373322;19;20474;-70
2023/10/26 09:43:11;;;;;;;5.30;3.28;;;12.60;55.80;;;;;;7372228;19;20039;-72
2023/10/26 09:45:41;;;;;;;9.73;4.15;;;12.60;62.00;;;;;;7373648;19;20562;-71
2023/10/26 09:48:12;;;;;;;5.07;3.33;;;12.50;60.40;;;;;;7370013;19;20014;-71
2023/10/26 09:50:45;;;;;;;9.57;3.78;;;12.40;65.50;;;;;;7373957;19;20017;-72
2023/10/26 09:53:18;;;;;;;3.65;2.42;;;12.40;73.50;;;;;;7372624;19;20035;-71
2023/10/26 09:55:49;;;;;;;8.45;3.35;;;12.40;88.90;;;;;;7375139;19;20074;-71
2023/10/26 09:58:24;;;;;;;5.93;2.83;;;12.30;95.90;;;;;;7373839;19;20019;-71
2023/10/26 10:00:54;;;;;;;7.65;3.20;;;12.10;99.90;;;;;;7374460;19;20082;-71
2023/10/26 10:03:26;;;;;;;7.90;3.75;;;12.00;99.90;;;;;;7372446;19;20011;-71
2023/10/26 10:05:56;;;;;;;6.57;4.47;;;11.90;99.90;;;;;;7374978;19;20011;-69
2023/10/26 10:08:56;;;;;;;9.30;5.53;;;11.90;99.90;;;;;;7373893;19;20018;-71
2023/10/26 10:11:26;;;;;;;5.57;3.90;;;11.90;99.90;;;;;;6865547;19;2005097;-70
2023/10/26 10:13:58;;;;;;;4.00;3.10;;;11.60;99.90;;;;;;7381508;19;20011;-70
2023/10/26 10:16:53;;;;;;;8.70;4.13;;;11.60;99.90;;;;;;7383599;19;20471;-70
2023/10/26 10:19:25;;;;;;;5.88;3.58;;;11.50;99.90;;;;;;6873099;19;2004861;-71
2023/10/26 10:21:58;;;;;;;8.10;4.57;;;11.70;99.90;;;;;;7381569;19;20577;-70
2023/10/26 10:24:53;;;;;;;7.60;4.45;;;11.80;99.90;;;;;;7382592;19;20013;-71
2023/10/26 10:27:23;;;;;;;7.15;4.63;;;11.70;99.90;;;;;;6870093;19;2004597;-71
2023/10/26 10:29:58;;;;;;;8.20;4.50;;;11.70;99.90;;;;;;7382474;19;20462;-70
2023/10/26 10:32:53;;;;;;;5.80;4.70;;;11.60;99.90;;;;;;7377455;19;20047;-72
2023/10/26 10:35:43;;;;;;;7.10;4.65;;;11.70;99.90;;;;;;6868310;19;2004794;-70
2023/10/26 10:38:24;;;;;;;8.43;4.55;;;11.60;99.90;;;;;;6869756;19;2004902;-70
2023/10/26 10:41:12;;;;;;;7.53;4.57;;;11.80;99.90;;;;;;7376514;19;20011;-71
2023/10/26 10:43:45;;;;;;;7.50;4.25;;;11.80;99.90;;;;;;6854565;19;2004981;-71
2023/10/26 10:46:21;;;;;;;5.40;3.50;;;11.90;99.90;;;;;;7364959;19;20011;-70
2023/10/26 10:49:03;;;;;;;4.72;4.22;;;12.00;99.90;;;;;;7365643;19;20026;-71
2023/10/26 10:51:34;;;;;;;4.75;4.25;;;11.90;99.90;;;;;;7362807;19;20097;-71
2023/10/26 10:54:07;;;;;;;5.78;5.07;;;12.10;99.90;;;;;;7363348;19;20010;-70
2023/10/26 10:56:57;;;;;;;4.05;3.60;;;12.10;99.90;;;;;;7363199;19;20014;-71
2023/10/26 10:59:30;;;;;;;5.43;3.70;;;11.80;99.90;;;;;;7364658;19;20014;-71
2023/10/26 11:02:13;;;;;;;4.55;3.92;;;11.90;99.90;;;;;;7361142;19;20017;-70
2023/10/26 11:04:55;;;;;;;4.88;4.10;;;12.00;99.90;;;;;;6852340;19;2005020;-71
2023/10/26 11:07:38;;;;;;;6.78;4.70;;;12.10;99.90;;;;;;7360773;19;20676;-70
2023/10/26 11:10:09;;;;;;;7.15;5.55;;;12.10;99.90;;;;;;7358394;19;20018;-71
2023/10/26 11:12:39;;;;;;;5.93;4.60;;;12.20;99.90;;;;;;7361949;19;20475;-70
2023/10/26 11:15:10;;;;;;;5.43;3.90;;;12.20;99.90;;;;;;7356712;19;21153;-69
2023/10/26 11:17:43;;;;;;;3.90;3.40;;;12.30;99.90;;;;;;7360077;19;20006;-71
2023/10/26 11:20:37;;;;;;;5.57;4.00;;;12.20;99.90;;;;;;7361623;19;20010;-72
2023/10/26 11:23:08;;;;;;;6.18;3.83;;;12.10;99.90;;;;;;7354573;19;20044;-70
2023/10/26 11:25:37;;;;;;;3.95;2.60;;;12.10;99.90;;;;;;7360343;19;20138;-70
2023/10/26 11:28:08;;;;;;;4.22;2.88;;;12.30;99.90;;;;;;7358982;19;20506;-71
2023/10/26 11:30:48;;;;;;;4.38;2.40;;;12.40;99.90;;;;;;7363096;19;20011;-72
2023/10/26 11:33:34;;;;;;;2.60;2.40;;;12.10;99.90;;;;;;7358608;19;20289;-70
2023/10/26 11:36:09;;;;;;;5.03;3.70;;;12.30;99.90;;;;;;7356685;19;20018;-70
2023/10/26 11:38:48;;;;;;;4.20;3.05;;;12.40;99.90;;;;;;7365150;19;20014;-71
2023/10/26 11:41:24;;;;;;;3.80;3.05;;;12.70;99.90;;;;;;7364642;19;20090;-71
2023/10/26 11:43:54;;;;;;;3.17;2.88;;;12.70;99.90;;;;;;7363673;19;20061;-71
2023/10/26 11:46:32;;;;;;;6.40;3.22;;;12.70;99.90;;;;;;7361726;19;20018;-71
2023/10/26 11:49:05;;;;;;;4.05;3.17;;;12.70;99.90;;;;;;7361791;19;20015;-70
2023/10/26 11:51:36;;;;;;;3.03;2.57;;;12.70;99.90;;;;;;7362496;19;20089;-71
2023/10/26 11:54:14;;;;;;;4.82;3.53;;;12.70;99.90;;;;;;7363687;19;20888;-70
2023/10/26 11:56:44;;;;;;;3.35;2.92;;;12.80;99.90;;;;;;7363377;19;20011;-70
2023/10/26 11:59:14;;;;;;;3.65;3.17;;;12.70;99.90;;;;;;7361605;19;20029;-70
2023/10/26 12:01:44;;;;;;;3.45;2.83;;;13.00;99.90;;;;;;7365426;19;20015;-71
2023/10/26 12:04:17;;;;;;;2.78;2.38;;;13.00;99.90;;;;;;7363675;19;20502;-71
2023/10/26 12:06:47;;;;;;;2.13;1.92;;;13.00;99.90;;;;;;7362601;19;20011;-71
2023/10/26 12:09:17;;;;;;;4.47;2.58;;;13.20;99.90;;;;;;7363140;19;20010;-71
2023/10/26 12:11:47;;;;;;;2.72;2.00;;;13.30;99.90;;;;;;7363557;19;20070;-72
2023/10/26 12:14:17;;;;;;;1.55;1.42;;;13.40;99.90;;;;;;7362557;19;20010;-71
2023/10/26 12:16:47;;;;;;;2.42;1.70;;;13.20;99.90;;;;;;7362053;19;20098;-71
2023/10/26 12:19:19;;;;;;;1.90;1.20;;;13.30;99.90;;;;;;7364088;19;20010;-72
2023/10/26 12:21:49;;;;;;;3.25;1.80;;;13.30;94.80;;;;;;7363814;19;20013;-71
2023/10/26 12:24:20;;;;;;;6.28;2.00;;;13.40;88.90;;;;;;7361321;19;20006;-72
2023/10/26 12:26:49;;;;;;;1.38;1.27;;;13.40;93.30;;;;;;7362069;19;20085;-71
2023/10/26 12:29:19;;;;;;;2.15;1.98;;;13.40;75.10;;;;;;7362521;19;20017;-71
2023/10/26 12:31:49;;;;;;;3.25;2.45;;;13.20;92.50;;;;;;7362384;19;20021;-70
2023/10/26 12:34:22;;;;;;;2.67;2.08;;;13.60;97.70;;;;;;7363415;19;20027;-71
2023/10/26 12:36:52;;;;;;;2.53;2.33;;;13.70;92.40;;;;;;7360213;19;20010;-72
2023/10/26 12:39:22;;;;;;;3.70;1.90;;;13.90;85.50;;;;;;7362498;19;20023;-72
2023/10/26 12:41:52;;;;;;;3.28;2.75;;;14.10;76.70;;;;;;7362095;19;20602;-70
2023/10/26 12:44:24;;;;;;;2.50;2.00;;;14.00;52.50;;;;;;7357046;19;20013;-71
2023/10/26 12:46:54;;;;;;;3.22;1.95;;;14.10;51.30;;;;;;7359669;19;20549;-70
2023/10/26 12:49:27;;;;;;;3.22;2.38;;;14.20;56.20;;;;;;7362953;19;20087;-71
2023/10/26 12:51:57;;;;;;;4.68;2.03;;;14.10;43.20;;;;;;7361703;19;20082;-71
2023/10/26 12:54:27;;;;;;;2.50;1.90;;;14.30;56.50;;;;;;7360314;19;20014;-70
2023/10/26 12:56:58;;;;;;;2.20;1.80;;;14.30;52.60;;;;;;7360524;19;21357;-71
2023/10/26 12:59:28;;;;;;;2.00;1.70;;;14.40;43.30;;;;;;7361867;19;20018;-71
2023/10/26 13:02:00;;;;;;;4.07;2.00;;;14.40;28.70;;;;;;7359613;19;20013;-71
2023/10/26 13:04:34;;;;;;;3.70;2.10;;;14.60;40.70;;;;;;7359346;19;20031;-72
2023/10/26 13:07:04;;;;;;;3.17;2.40;;;14.40;27.10;;;;;;7358404;19;20035;-72
2023/10/26 13:09:35;;;;;;;2.47;1.90;;;14.60;38.80;;;;;;7360562;19;20010;-72
2023/10/26 13:12:05;;;;;;;2.30;2.10;;;14.40;29.40;;;;;;7361476;19;20014;-72
2023/10/26 13:14:35;;;;;;;3.20;2.90;;;14.50;29.80;;;;;;7361310;19;20663;-72
2023/10/26 13:17:09;;;;;;;2.30;2.10;;;14.60;40.60;;;;;;7358960;19;20011;-71